sensor_id;sensor_type;location;lat;lon;timestamp;pressure;altitude;pressure_sealevel;temperature;humidity
70488;BME280;57976;48.174;16.370;2023-07-29T00:01:30;98756.58;;;23.37;70.15
70488;BME280;57976;48.174;16.370;2023-07-29T00:03:36;98752.98;;;23.35;70.17
70488;BME280;57976;48.174;16.370;2023-07-29T00:05:45;98751.77;;;23.35;70.13
70488;BME280;57976;48.174;16.370;2023-07-29T00:07:53;98754.13;;;23.33;70.40
70488;BME280;57976;48.174;16.370;2023-07-29T00:09:59;98758.70;;;23.33;70.36
70488;BME280;57976;48.174;16.370;2023-07-29T00:12:06;98762.08;;;23.32;70.53
70488;BME280;57976;48.174;16.370;2023-07-29T00:14:11;98762.52;;;23.31;70.56
70488;BME280;57976;48.174;16.370;2023-07-29T00:16:15;98768.39;;;23.31;70.71
70488;BME280;57976;48.174;16.370;2023-07-29T00:18:21;98770.54;;;23.29;70.64
70488;BME280;57976;48.174;16.370;2023-07-29T00:20:30;98764.80;;;23.28;70.85
70488;BME280;57976;48.174;16.370;2023-07-29T00:22:35;98763.65;;;23.25;70.77
70488;BME280;57976;48.174;16.370;2023-07-29T00:24:41;98760.67;;;23.24;71.10
70488;BME280;57976;48.174;16.370;2023-07-29T00:26:45;98758.10;;;23.25;71.32
70488;BME280;57976;48.174;16.370;2023-07-29T00:28:50;98754.11;;;23.23;71.43
70488;BME280;57976;48.174;16.370;2023-07-29T00:30:58;98752.93;;;23.22;71.26
70488;BME280;57976;48.174;16.370;2023-07-29T00:33:04;98754.20;;;23.21;71.48
70488;BME280;57976;48.174;16.370;2023-07-29T00:35:10;98754.56;;;23.19;71.53
70488;BME280;57976;48.174;16.370;2023-07-29T00:37:20;98754.98;;;23.20;71.74
70488;BME280;57976;48.174;16.370;2023-07-29T00:39:25;98748.42;;;23.22;71.74
70488;BME280;57976;48.174;16.370;2023-07-29T00:41:30;98741.72;;;23.20;71.67
70488;BME280;57976;48.174;16.370;2023-07-29T00:43:37;98742.91;;;23.21;71.83
70488;BME280;57976;48.174;16.370;2023-07-29T00:45:43;98744.79;;;23.22;71.76
70488;BME280;57976;48.174;16.370;2023-07-29T00:47:50;98737.88;;;23.21;71.87
70488;BME280;57976;48.174;16.370;2023-07-29T00:49:55;98735.38;;;23.22;71.91
70488;BME280;57976;48.174;16.370;2023-07-29T00:52:01;98742.41;;;23.20;71.80
70488;BME280;57976;48.174;16.370;2023-07-29T00:54:07;98743.22;;;23.18;72.12
70488;BME280;57976;48.174;16.370;2023-07-29T00:56:12;98746.20;;;23.16;72.05
70488;BME280;57976;48.174;16.370;2023-07-29T00:58:20;98744.61;;;23.13;72.08
70488;BME280;57976;48.174;16.370;2023-07-29T01:00:25;98739.05;;;23.11;72.40
70488;BME280;57976;48.174;16.370;2023-07-29T01:02:30;98741.17;;;23.10;72.46
70488;BME280;57976;48.174;16.370;2023-07-29T01:04:37;98738.89;;;23.10;72.52
70488;BME280;57976;48.174;16.370;2023-07-29T01:06:50;98737.61;;;23.12;72.57
70488;BME280;57976;48.174;16.370;2023-07-29T01:08:59;98739.86;;;23.10;72.46
70488;BME280;57976;48.174;16.370;2023-07-29T01:11:20;98737.10;;;23.11;72.62
70488;BME280;57976;48.174;16.370;2023-07-29T01:13:41;98740.21;;;23.09;72.46
70488;BME280;57976;48.174;16.370;2023-07-29T01:15:54;98739.49;;;23.06;72.83
70488;BME280;57976;48.174;16.370;2023-07-29T01:18:06;98739.94;;;23.05;72.95
70488;BME280;57976;48.174;16.370;2023-07-29T01:20:17;98740.42;;;23.06;72.99
70488;BME280;57976;48.174;16.370;2023-07-29T01:22:26;98739.39;;;23.06;73.12
70488;BME280;57976;48.174;16.370;2023-07-29T01:24:32;98741.36;;;23.05;73.14
70488;BME280;57976;48.174;16.370;2023-07-29T01:26:36;98743.56;;;23.04;73.46
70488;BME280;57976;48.174;16.370;2023-07-29T01:28:47;98750.08;;;23.05;73.53
70488;BME280;57976;48.174;16.370;2023-07-29T01:30:56;98751.84;;;23.06;73.49
70488;BME280;57976;48.174;16.370;2023-07-29T01:33:11;98752.20;;;23.05;73.53
70488;BME280;57976;48.174;16.370;2023-07-29T01:35:23;98753.02;;;23.03;73.49
70488;BME280;57976;48.174;16.370;2023-07-29T01:37:34;98752.36;;;23.01;73.59
70488;BME280;57976;48.174;16.370;2023-07-29T01:39:39;98753.48;;;22.97;73.69
70488;BME280;57976;48.174;16.370;2023-07-29T01:41:46;98754.93;;;22.93;73.79
70488;BME280;57976;48.174;16.370;2023-07-29T01:43:54;98748.63;;;22.89;74.04
70488;BME280;57976;48.174;16.370;2023-07-29T01:46:01;98749.11;;;22.85;74.37
70488;BME280;57976;48.174;16.370;2023-07-29T01:48:07;98744.59;;;22.83;75.27
70488;BME280;57976;48.174;16.370;2023-07-29T01:50:13;98742.29;;;22.81;75.28
70488;BME280;57976;48.174;16.370;2023-07-29T01:52:18;98740.95;;;22.79;75.34
70488;BME280;57976;48.174;16.370;2023-07-29T01:54:23;98737.76;;;22.79;75.91
70488;BME280;57976;48.174;16.370;2023-07-29T01:56:28;98726.44;;;22.76;76.29
70488;BME280;57976;48.174;16.370;2023-07-29T01:58:36;98728.65;;;22.73;76.35
70488;BME280;57976;48.174;16.370;2023-07-29T02:00:43;98732.14;;;22.71;76.38
70488;BME280;57976;48.174;16.370;2023-07-29T02:02:55;98738.20;;;22.70;76.50
70488;BME280;57976;48.174;16.370;2023-07-29T02:05:08;98729.85;;;22.69;76.73
70488;BME280;57976;48.174;16.370;2023-07-29T02:07:13;98732.48;;;22.67;77.15
70488;BME280;57976;48.174;16.370;2023-07-29T02:09:21;98726.64;;;22.66;77.34
70488;BME280;57976;48.174;16.370;2023-07-29T02:11:26;98725.84;;;22.65;76.93
70488;BME280;57976;48.174;16.370;2023-07-29T02:13:31;98724.19;;;22.62;77.03
70488;BME280;57976;48.174;16.370;2023-07-29T02:15:36;98725.41;;;22.61;77.00
70488;BME280;57976;48.174;16.370;2023-07-29T02:17:42;98728.39;;;22.61;76.85
70488;BME280;57976;48.174;16.370;2023-07-29T02:19:47;98727.84;;;22.62;76.68
70488;BME280;57976;48.174;16.370;2023-07-29T02:21:52;98732.94;;;22.62;76.51
70488;BME280;57976;48.174;16.370;2023-07-29T02:23:57;98737.72;;;22.62;76.28
70488;BME280;57976;48.174;16.370;2023-07-29T02:26:02;98737.96;;;22.59;76.25
70488;BME280;57976;48.174;16.370;2023-07-29T02:28:21;98732.59;;;22.57;76.34
70488;BME280;57976;48.174;16.370;2023-07-29T02:30:29;98729.68;;;22.56;76.20
70488;BME280;57976;48.174;16.370;2023-07-29T02:32:35;98734.81;;;22.54;75.96
70488;BME280;57976;48.174;16.370;2023-07-29T02:34:40;98740.66;;;22.51;75.96
70488;BME280;57976;48.174;16.370;2023-07-29T02:36:45;98749.02;;;22.48;75.61
70488;BME280;57976;48.174;16.370;2023-07-29T02:38:50;98753.77;;;22.46;75.36
70488;BME280;57976;48.174;16.370;2023-07-29T02:41:01;98751.84;;;22.45;75.00
70488;BME280;57976;48.174;16.370;2023-07-29T02:43:08;98752.10;;;22.45;74.45
70488;BME280;57976;48.174;16.370;2023-07-29T02:45:13;98753.23;;;22.45;73.67
70488;BME280;57976;48.174;16.370;2023-07-29T02:47:18;98752.14;;;22.45;73.11
70488;BME280;57976;48.174;16.370;2023-07-29T02:49:23;98752.95;;;22.46;72.80
70488;BME280;57976;48.174;16.370;2023-07-29T02:51:27;98748.69;;;22.44;72.19
70488;BME280;57976;48.174;16.370;2023-07-29T02:53:34;98746.48;;;22.43;71.89
70488;BME280;57976;48.174;16.370;2023-07-29T02:55:42;98742.86;;;22.43;71.45
70488;BME280;57976;48.174;16.370;2023-07-29T02:57:51;98737.58;;;22.43;71.02
70488;BME280;57976;48.174;16.370;2023-07-29T02:59:57;98733.48;;;22.44;70.54
70488;BME280;57976;48.174;16.370;2023-07-29T03:02:03;98735.65;;;22.45;69.84
70488;BME280;57976;48.174;16.370;2023-07-29T03:04:13;98733.79;;;22.45;69.60
70488;BME280;57976;48.174;16.370;2023-07-29T03:06:18;98738.29;;;22.46;68.95
70488;BME280;57976;48.174;16.370;2023-07-29T03:08:26;98739.86;;;22.46;68.77
70488;BME280;57976;48.174;16.370;2023-07-29T03:10:31;98747.43;;;22.45;68.56
70488;BME280;57976;48.174;16.370;2023-07-29T03:12:36;98738.64;;;22.45;68.54
70488;BME280;57976;48.174;16.370;2023-07-29T03:14:41;98742.80;;;22.45;68.43
70488;BME280;57976;48.174;16.370;2023-07-29T03:16:46;98743.33;;;22.46;68.41
70488;BME280;57976;48.174;16.370;2023-07-29T03:18:51;98748.48;;;22.47;68.32
70488;BME280;57976;48.174;16.370;2023-07-29T03:20:58;98750.33;;;22.48;68.26
70488;BME280;57976;48.174;16.370;2023-07-29T03:23:02;98748.63;;;22.49;68.09
70488;BME280;57976;48.174;16.370;2023-07-29T03:25:10;98745.61;;;22.51;68.00
70488;BME280;57976;48.174;16.370;2023-07-29T03:27:15;98742.30;;;22.51;67.75
70488;BME280;57976;48.174;16.370;2023-07-29T03:29:20;98745.89;;;22.51;67.65
70488;BME280;57976;48.174;16.370;2023-07-29T03:31:27;98747.83;;;22.51;67.57
70488;BME280;57976;48.174;16.370;2023-07-29T03:33:32;98751.71;;;22.53;67.70
70488;BME280;57976;48.174;16.370;2023-07-29T03:35:40;98754.54;;;22.54;67.31
70488;BME280;57976;48.174;16.370;2023-07-29T03:37:50;98760.89;;;22.54;67.45
70488;BME280;57976;48.174;16.370;2023-07-29T03:39:55;98765.58;;;22.56;67.46
70488;BME280;57976;48.174;16.370;2023-07-29T03:42:00;98768.64;;;22.54;67.47
70488;BME280;57976;48.174;16.370;2023-07-29T03:44:06;98768.46;;;22.51;67.56
70488;BME280;57976;48.174;16.370;2023-07-29T03:46:11;98768.23;;;22.49;67.83
70488;BME280;57976;48.174;16.370;2023-07-29T03:48:17;98767.13;;;22.46;67.81
70488;BME280;57976;48.174;16.370;2023-07-29T03:50:22;98770.98;;;22.46;67.88
70488;BME280;57976;48.174;16.370;2023-07-29T03:52:27;98773.65;;;22.45;68.09
70488;BME280;57976;48.174;16.370;2023-07-29T03:54:35;98772.59;;;22.44;68.16
70488;BME280;57976;48.174;16.370;2023-07-29T03:56:40;98772.88;;;22.45;68.28
70488;BME280;57976;48.174;16.370;2023-07-29T03:58:48;98776.52;;;22.46;68.10
70488;BME280;57976;48.174;16.370;2023-07-29T04:00:56;98774.84;;;22.46;68.18
70488;BME280;57976;48.174;16.370;2023-07-29T04:03:02;98779.63;;;22.45;68.29
70488;BME280;57976;48.174;16.370;2023-07-29T04:05:08;98775.23;;;22.45;68.48
70488;BME280;57976;48.174;16.370;2023-07-29T04:07:13;98776.44;;;22.44;68.57
70488;BME280;57976;48.174;16.370;2023-07-29T04:09:18;98778.66;;;22.44;68.65
70488;BME280;57976;48.174;16.370;2023-07-29T04:11:24;98779.67;;;22.45;68.53
70488;BME280;57976;48.174;16.370;2023-07-29T04:13:29;98782.45;;;22.45;68.46
70488;BME280;57976;48.174;16.370;2023-07-29T04:15:33;98781.49;;;22.43;68.25
70488;BME280;57976;48.174;16.370;2023-07-29T04:17:40;98782.23;;;22.41;68.24
70488;BME280;57976;48.174;16.370;2023-07-29T04:19:46;98787.11;;;22.41;68.39
70488;BME280;57976;48.174;16.370;2023-07-29T04:21:51;98790.98;;;22.44;68.32
70488;BME280;57976;48.174;16.370;2023-07-29T04:24:02;98790.80;;;22.45;68.25
70488;BME280;57976;48.174;16.370;2023-07-29T04:26:07;98796.38;;;22.47;68.19
70488;BME280;57976;48.174;16.370;2023-07-29T04:28:15;98800.35;;;22.50;68.10
70488;BME280;57976;48.174;16.370;2023-07-29T04:30:20;98800.96;;;22.54;68.10
70488;BME280;57976;48.174;16.370;2023-07-29T04:32:25;98807.59;;;22.57;67.85
70488;BME280;57976;48.174;16.370;2023-07-29T04:34:32;98809.50;;;22.59;67.65
70488;BME280;57976;48.174;16.370;2023-07-29T04:36:38;98814.10;;;22.61;67.52
70488;BME280;57976;48.174;16.370;2023-07-29T04:38:45;98815.08;;;22.64;67.53
70488;BME280;57976;48.174;16.370;2023-07-29T04:40:53;98813.61;;;22.65;67.35
70488;BME280;57976;48.174;16.370;2023-07-29T04:43:02;98816.67;;;22.63;67.25
70488;BME280;57976;48.174;16.370;2023-07-29T04:45:08;98814.80;;;22.61;67.37
70488;BME280;57976;48.174;16.370;2023-07-29T04:47:15;98813.79;;;22.58;67.37
70488;BME280;57976;48.174;16.370;2023-07-29T04:49:21;98820.75;;;22.56;67.56
70488;BME280;57976;48.174;16.370;2023-07-29T04:51:26;98820.43;;;22.56;67.53
70488;BME280;57976;48.174;16.370;2023-07-29T04:53:30;98821.39;;;22.57;67.47
70488;BME280;57976;48.174;16.370;2023-07-29T04:55:35;98822.05;;;22.59;67.29
70488;BME280;57976;48.174;16.370;2023-07-29T04:57:40;98820.79;;;22.58;67.19
70488;BME280;57976;48.174;16.370;2023-07-29T04:59:48;98821.60;;;22.60;67.27
70488;BME280;57976;48.174;16.370;2023-07-29T05:01:53;98821.17;;;22.63;67.19
70488;BME280;57976;48.174;16.370;2023-07-29T05:03:59;98817.89;;;22.65;67.06
70488;BME280;57976;48.174;16.370;2023-07-29T05:06:04;98818.84;;;22.68;67.04
70488;BME280;57976;48.174;16.370;2023-07-29T05:08:09;98825.65;;;22.70;67.06
70488;BME280;57976;48.174;16.370;2023-07-29T05:10:18;98823.66;;;22.69;66.85
70488;BME280;57976;48.174;16.370;2023-07-29T05:12:28;98826.27;;;22.72;66.81
70488;BME280;57976;48.174;16.370;2023-07-29T05:14:32;98824.74;;;22.73;66.76
70488;BME280;57976;48.174;16.370;2023-07-29T05:16:41;98824.73;;;22.74;66.73
70488;BME280;57976;48.174;16.370;2023-07-29T05:18:51;98827.98;;;22.78;66.69
70488;BME280;57976;48.174;16.370;2023-07-29T05:20:56;98828.02;;;22.81;66.59
70488;BME280;57976;48.174;16.370;2023-07-29T05:23:03;98831.85;;;22.87;66.64
70488;BME280;57976;48.174;16.370;2023-07-29T05:25:09;98831.34;;;22.92;66.48
70488;BME280;57976;48.174;16.370;2023-07-29T05:27:14;98830.27;;;22.95;66.41
70488;BME280;57976;48.174;16.370;2023-07-29T05:29:19;98827.82;;;22.95;66.50
70488;BME280;57976;48.174;16.370;2023-07-29T05:31:24;98830.08;;;22.96;66.54
70488;BME280;57976;48.174;16.370;2023-07-29T05:33:31;98832.47;;;23.04;66.56
70488;BME280;57976;48.174;16.370;2023-07-29T05:35:36;98830.90;;;23.08;66.59
70488;BME280;57976;48.174;16.370;2023-07-29T05:37:41;98832.61;;;23.12;66.50
70488;BME280;57976;48.174;16.370;2023-07-29T05:39:46;98832.22;;;23.13;66.31
70488;BME280;57976;48.174;16.370;2023-07-29T05:41:51;98830.96;;;23.18;66.43
70488;BME280;57976;48.174;16.370;2023-07-29T05:44:00;98831.25;;;23.24;66.40
70488;BME280;57976;48.174;16.370;2023-07-29T05:46:04;98828.20;;;23.31;66.34
70488;BME280;57976;48.174;16.370;2023-07-29T05:48:09;98825.74;;;23.37;66.08
70488;BME280;57976;48.174;16.370;2023-07-29T05:50:17;98831.20;;;23.43;66.22
70488;BME280;57976;48.174;16.370;2023-07-29T05:52:23;98833.79;;;23.51;65.93
70488;BME280;57976;48.174;16.370;2023-07-29T05:54:29;98835.55;;;23.53;65.74
70488;BME280;57976;48.174;16.370;2023-07-29T05:56:34;98836.16;;;23.55;65.71
70488;BME280;57976;48.174;16.370;2023-07-29T05:58:39;98841.47;;;23.57;65.72
70488;BME280;57976;48.174;16.370;2023-07-29T06:00:45;98838.56;;;23.62;65.65
70488;BME280;57976;48.174;16.370;2023-07-29T06:02:50;98837.23;;;23.67;65.52
70488;BME280;57976;48.174;16.370;2023-07-29T06:04:57;98834.58;;;23.66;65.31
70488;BME280;57976;48.174;16.370;2023-07-29T06:07:06;98831.46;;;23.66;65.38
70488;BME280;57976;48.174;16.370;2023-07-29T06:09:14;98832.20;;;23.71;65.55
70488;BME280;57976;48.174;16.370;2023-07-29T06:11:19;98831.39;;;23.74;65.27
70488;BME280;57976;48.174;16.370;2023-07-29T06:13:24;98831.83;;;23.77;65.16
70488;BME280;57976;48.174;16.370;2023-07-29T06:15:29;98831.77;;;23.78;65.17
70488;BME280;57976;48.174;16.370;2023-07-29T06:17:35;98833.41;;;23.77;65.09
70488;BME280;57976;48.174;16.370;2023-07-29T06:19:40;98837.83;;;23.76;65.17
70488;BME280;57976;48.174;16.370;2023-07-29T06:21:45;98837.71;;;23.76;65.11
70488;BME280;57976;48.174;16.370;2023-07-29T06:23:53;98846.20;;;23.76;65.10
70488;BME280;57976;48.174;16.370;2023-07-29T06:26:00;98848.08;;;23.75;65.10
70488;BME280;57976;48.174;16.370;2023-07-29T06:28:05;98850.18;;;23.76;65.09
70488;BME280;57976;48.174;16.370;2023-07-29T06:30:10;98847.23;;;23.76;64.95
70488;BME280;57976;48.174;16.370;2023-07-29T06:32:20;98847.98;;;23.77;65.03
70488;BME280;57976;48.174;16.370;2023-07-29T06:34:32;98845.33;;;23.80;65.19
70488;BME280;57976;48.174;16.370;2023-07-29T06:36:37;98843.94;;;23.82;64.83
70488;BME280;57976;48.174;16.370;2023-07-29T06:38:43;98841.08;;;23.86;64.75
70488;BME280;57976;48.174;16.370;2023-07-29T06:40:47;98843.98;;;23.88;64.75
70488;BME280;57976;48.174;16.370;2023-07-29T06:42:52;98846.56;;;23.90;64.65
70488;BME280;57976;48.174;16.370;2023-07-29T06:44:58;98840.09;;;23.90;64.70
70488;BME280;57976;48.174;16.370;2023-07-29T06:47:05;98833.52;;;23.92;64.54
70488;BME280;57976;48.174;16.370;2023-07-29T06:49:10;98836.27;;;23.93;64.51
70488;BME280;57976;48.174;16.370;2023-07-29T06:51:15;98837.42;;;23.99;64.51
70488;BME280;57976;48.174;16.370;2023-07-29T06:53:20;98832.25;;;24.05;64.41
70488;BME280;57976;48.174;16.370;2023-07-29T06:55:24;98828.89;;;24.14;63.81
70488;BME280;57976;48.174;16.370;2023-07-29T06:57:29;98825.30;;;24.17;63.53
70488;BME280;57976;48.174;16.370;2023-07-29T06:59:35;98823.75;;;24.18;63.31
70488;BME280;57976;48.174;16.370;2023-07-29T07:01:43;98825.74;;;24.22;63.29
70488;BME280;57976;48.174;16.370;2023-07-29T07:03:47;98824.31;;;24.26;63.16
70488;BME280;57976;48.174;16.370;2023-07-29T07:05:58;98822.68;;;24.28;63.12
70488;BME280;57976;48.174;16.370;2023-07-29T07:08:04;98821.45;;;24.30;62.95
70488;BME280;57976;48.174;16.370;2023-07-29T07:10:10;98830.27;;;24.33;63.02
70488;BME280;57976;48.174;16.370;2023-07-29T07:12:18;98827.16;;;24.36;62.93
70488;BME280;57976;48.174;16.370;2023-07-29T07:14:22;98826.35;;;24.41;63.06
70488;BME280;57976;48.174;16.370;2023-07-29T07:16:27;98824.42;;;24.48;62.73
70488;BME280;57976;48.174;16.370;2023-07-29T07:18:32;98818.65;;;24.53;62.83
70488;BME280;57976;48.174;16.370;2023-07-29T07:20:37;98820.01;;;24.56;62.53
70488;BME280;57976;48.174;16.370;2023-07-29T07:22:42;98819.59;;;24.60;62.63
70488;BME280;57976;48.174;16.370;2023-07-29T07:24:49;98815.98;;;24.63;62.39
70488;BME280;57976;48.174;16.370;2023-07-29T07:26:54;98810.79;;;24.66;62.27
70488;BME280;57976;48.174;16.370;2023-07-29T07:29:02;98814.30;;;24.67;62.37
70488;BME280;57976;48.174;16.370;2023-07-29T07:31:07;98810.64;;;24.68;62.36
70488;BME280;57976;48.174;16.370;2023-07-29T07:33:13;98809.33;;;24.68;62.12
70488;BME280;57976;48.174;16.370;2023-07-29T07:35:19;98808.80;;;24.73;62.12
70488;BME280;57976;48.174;16.370;2023-07-29T07:37:26;98811.05;;;24.81;62.04
70488;BME280;57976;48.174;16.370;2023-07-29T07:39:32;98815.95;;;24.86;61.75
70488;BME280;57976;48.174;16.370;2023-07-29T07:41:37;98818.17;;;24.91;61.78
70488;BME280;57976;48.174;16.370;2023-07-29T07:43:45;98816.30;;;24.93;61.57
70488;BME280;57976;48.174;16.370;2023-07-29T07:45:50;98813.73;;;24.95;61.44
70488;BME280;57976;48.174;16.370;2023-07-29T07:48:02;98813.48;;;24.99;61.13
70488;BME280;57976;48.174;16.370;2023-07-29T07:50:08;98812.69;;;25.05;61.35
70488;BME280;57976;48.174;16.370;2023-07-29T07:52:13;98812.89;;;25.10;60.94
70488;BME280;57976;48.174;16.370;2023-07-29T07:54:18;98810.70;;;25.16;60.55
70488;BME280;57976;48.174;16.370;2023-07-29T07:56:25;98813.48;;;25.19;60.08
70488;BME280;57976;48.174;16.370;2023-07-29T07:58:30;98808.84;;;25.23;59.88
70488;BME280;57976;48.174;16.370;2023-07-29T08:00:37;98806.06;;;25.27;60.19
70488;BME280;57976;48.174;16.370;2023-07-29T08:02:44;98812.40;;;25.33;60.02
70488;BME280;57976;48.174;16.370;2023-07-29T08:04:49;98808.88;;;25.38;59.67
70488;BME280;57976;48.174;16.370;2023-07-29T08:06:56;98807.22;;;25.43;59.32
70488;BME280;57976;48.174;16.370;2023-07-29T08:09:01;98806.63;;;25.45;59.07
70488;BME280;57976;48.174;16.370;2023-07-29T08:11:05;98804.20;;;25.52;58.91
70488;BME280;57976;48.174;16.370;2023-07-29T08:13:13;98799.48;;;25.62;58.70
70488;BME280;57976;48.174;16.370;2023-07-29T08:15:18;98799.29;;;25.72;58.13
70488;BME280;57976;48.174;16.370;2023-07-29T08:17:23;98802.73;;;25.82;56.94
70488;BME280;57976;48.174;16.370;2023-07-29T08:19:30;98815.80;;;25.90;56.42
70488;BME280;57976;48.174;16.370;2023-07-29T08:21:39;98802.73;;;25.89;56.41
70488;BME280;57976;48.174;16.370;2023-07-29T08:23:44;98796.58;;;25.88;56.91
70488;BME280;57976;48.174;16.370;2023-07-29T08:25:53;98793.42;;;25.92;57.03
70488;BME280;57976;48.174;16.370;2023-07-29T08:27:59;98800.65;;;25.99;56.53
70488;BME280;57976;48.174;16.370;2023-07-29T08:30:05;98792.20;;;26.04;56.46
70488;BME280;57976;48.174;16.370;2023-07-29T08:32:13;98789.79;;;26.12;55.97
70488;BME280;57976;48.174;16.370;2023-07-29T08:34:26;98792.89;;;26.18;54.97
70488;BME280;57976;48.174;16.370;2023-07-29T08:36:31;98789.10;;;26.26;54.47
70488;BME280;57976;48.174;16.370;2023-07-29T08:38:36;98787.19;;;26.29;54.18
70488;BME280;57976;48.174;16.370;2023-07-29T08:40:45;98780.80;;;26.34;53.87
70488;BME280;57976;48.174;16.370;2023-07-29T08:42:50;98780.95;;;26.39;53.86
70488;BME280;57976;48.174;16.370;2023-07-29T08:44:55;98775.74;;;26.44;53.53
70488;BME280;57976;48.174;16.370;2023-07-29T08:47:04;98782.42;;;26.50;53.96
70488;BME280;57976;48.174;16.370;2023-07-29T08:49:09;98779.35;;;26.59;53.32
70488;BME280;57976;48.174;16.370;2023-07-29T08:51:16;98780.20;;;26.65;52.79
70488;BME280;57976;48.174;16.370;2023-07-29T08:53:24;98775.77;;;26.64;52.17
70488;BME280;57976;48.174;16.370;2023-07-29T08:55:30;98770.16;;;26.61;52.44
70488;BME280;57976;48.174;16.370;2023-07-29T08:57:35;98762.30;;;26.63;52.59
70488;BME280;57976;48.174;16.370;2023-07-29T08:59:40;98768.13;;;26.71;52.52
70488;BME280;57976;48.174;16.370;2023-07-29T09:01:45;98760.17;;;26.76;52.65
70488;BME280;57976;48.174;16.370;2023-07-29T09:03:51;98765.88;;;26.79;52.52
70488;BME280;57976;48.174;16.370;2023-07-29T09:05:58;98763.95;;;26.83;52.51
70488;BME280;57976;48.174;16.370;2023-07-29T09:08:03;98760.73;;;26.87;52.98
70488;BME280;57976;48.174;16.370;2023-07-29T09:10:10;98754.50;;;26.94;52.68
70488;BME280;57976;48.174;16.370;2023-07-29T09:12:15;98755.63;;;27.02;52.41
70488;BME280;57976;48.174;16.370;2023-07-29T09:14:21;98752.98;;;27.13;52.61
70488;BME280;57976;48.174;16.370;2023-07-29T09:16:26;98753.10;;;27.23;52.19
70488;BME280;57976;48.174;16.370;2023-07-29T09:18:34;98755.89;;;27.31;51.75
70488;BME280;57976;48.174;16.370;2023-07-29T09:20:39;98751.92;;;27.32;51.60
70488;BME280;57976;48.174;16.370;2023-07-29T09:22:47;98747.10;;;27.32;52.02
70488;BME280;57976;48.174;16.370;2023-07-29T09:24:53;98749.92;;;27.37;51.59
70488;BME280;57976;48.174;16.370;2023-07-29T09:27:00;98746.80;;;27.40;50.64
70488;BME280;57976;48.174;16.370;2023-07-29T09:29:08;98741.45;;;27.43;50.81
70488;BME280;57976;48.174;16.370;2023-07-29T09:31:20;98741.30;;;27.52;50.94
70488;BME280;57976;48.174;16.370;2023-07-29T09:33:26;98746.36;;;27.55;50.80
70488;BME280;57976;48.174;16.370;2023-07-29T09:35:34;98740.00;;;27.58;50.88
70488;BME280;57976;48.174;16.370;2023-07-29T09:37:40;98731.84;;;27.63;50.94
70488;BME280;57976;48.174;16.370;2023-07-29T09:39:47;98726.63;;;27.73;50.66
70488;BME280;57976;48.174;16.370;2023-07-29T09:41:52;98729.39;;;27.89;49.46
70488;BME280;57976;48.174;16.370;2023-07-29T09:43:59;98720.58;;;27.97;49.40
70488;BME280;57976;48.174;16.370;2023-07-29T09:46:05;98721.13;;;28.06;48.89
70488;BME280;57976;48.174;16.370;2023-07-29T09:48:10;98716.00;;;28.14;48.43
70488;BME280;57976;48.174;16.370;2023-07-29T09:50:15;98717.02;;;28.20;47.99
70488;BME280;57976;48.174;16.370;2023-07-29T09:52:22;98715.20;;;28.25;48.09
70488;BME280;57976;48.174;16.370;2023-07-29T09:54:32;98709.48;;;28.27;47.72
70488;BME280;57976;48.174;16.370;2023-07-29T09:56:42;98712.19;;;28.26;46.81
70488;BME280;57976;48.174;16.370;2023-07-29T09:58:51;98699.23;;;28.26;47.18
70488;BME280;57976;48.174;16.370;2023-07-29T10:00:56;98702.32;;;28.33;47.26
70488;BME280;57976;48.174;16.370;2023-07-29T10:03:01;98703.39;;;28.40;47.30
70488;BME280;57976;48.174;16.370;2023-07-29T10:05:11;98698.80;;;28.42;47.45
70488;BME280;57976;48.174;16.370;2023-07-29T10:07:17;98704.54;;;28.47;46.60
70488;BME280;57976;48.174;16.370;2023-07-29T10:09:22;98698.20;;;28.47;46.92
70488;BME280;57976;48.174;16.370;2023-07-29T10:11:27;98700.51;;;28.53;46.66
70488;BME280;57976;48.174;16.370;2023-07-29T10:13:33;98696.66;;;28.54;46.37
70488;BME280;57976;48.174;16.370;2023-07-29T10:15:38;98702.61;;;28.58;46.08
70488;BME280;57976;48.174;16.370;2023-07-29T10:17:47;98688.92;;;28.62;46.08
70488;BME280;57976;48.174;16.370;2023-07-29T10:19:54;98688.51;;;28.66;46.23
70488;BME280;57976;48.174;16.370;2023-07-29T10:22:01;98689.73;;;28.73;45.56
70488;BME280;57976;48.174;16.370;2023-07-29T10:24:11;98682.24;;;28.80;45.05
70488;BME280;57976;48.174;16.370;2023-07-29T10:26:20;98683.88;;;28.84;45.10
70488;BME280;57976;48.174;16.370;2023-07-29T10:28:30;98679.11;;;28.89;45.75
70488;BME280;57976;48.174;16.370;2023-07-29T10:30:39;98676.84;;;29.00;45.67
70488;BME280;57976;48.174;16.370;2023-07-29T10:32:48;98683.02;;;29.12;45.06
70488;BME280;57976;48.174;16.370;2023-07-29T10:34:54;98680.71;;;29.17;44.17
70488;BME280;57976;48.174;16.370;2023-07-29T10:37:02;98695.80;;;29.22;43.78
70488;BME280;57976;48.174;16.370;2023-07-29T10:39:09;98694.17;;;29.27;43.29
70488;BME280;57976;48.174;16.370;2023-07-29T10:41:14;98691.67;;;29.32;43.39
70488;BME280;57976;48.174;16.370;2023-07-29T10:43:25;98677.38;;;29.40;43.33
70488;BME280;57976;48.174;16.370;2023-07-29T10:45:38;98679.95;;;29.56;42.72
70488;BME280;57976;48.174;16.370;2023-07-29T10:47:44;98684.14;;;29.68;42.25
70488;BME280;57976;48.174;16.370;2023-07-29T10:49:51;98680.27;;;29.76;42.23
70488;BME280;57976;48.174;16.370;2023-07-29T10:51:58;98677.63;;;29.83;41.55
70488;BME280;57976;48.174;16.370;2023-07-29T10:54:10;98672.39;;;29.95;41.36
70488;BME280;57976;48.174;16.370;2023-07-29T10:56:26;98673.68;;;30.05;41.12
70488;BME280;57976;48.174;16.370;2023-07-29T10:58:31;98667.64;;;30.18;40.67
70488;BME280;57976;48.174;16.370;2023-07-29T11:00:36;98659.34;;;30.28;40.37
70488;BME280;57976;48.174;16.370;2023-07-29T11:02:41;98655.48;;;30.37;40.04